Chicago, Illinois
Traffic Map
Current Weather Conditions
Chicago, Illinois
Broken Clouds
Broken Clouds
63°
Feels Like: 63°
Wind Chill: 63° Ceiling: 7500
Heat Index: 63° Visibility: 10mi
Dew Point: 49° Wind: 5mph
Humidity: 60% Direction: 260° (W)
Pressure: 30.05in Gusts: 0mph
Raw Report DataKMDW 250553Z 26004KT 10SM BKN075 BKN095 17/09 A3005 RMK AO2 SLP170 60000 T01720094 10222 20167 402390167 56002
Traffic Incident Summary
Active as of:
Severity:
Category:
InformationThere was an issue retrieving the traffic information for this location. Please try a different location or try again shortly.
Advertisements
Track Severe Weather on mobile